sensor_id;sensor_type;location;lat;lon;timestamp;P1;durP1;ratioP1;P2;durP2;ratioP2
69030;SDS011;56083;48.774;8.942;2023-09-12T00:01:45;20.23;;;10.95;;
69030;SDS011;56083;48.774;8.942;2023-09-12T00:04:11;18.98;;;10.52;;
69030;SDS011;56083;48.774;8.942;2023-09-12T00:06:36;26.20;;;10.55;;
69030;SDS011;56083;48.774;8.942;2023-09-12T00:09:02;25.40;;;10.57;;
69030;SDS011;56083;48.774;8.942;2023-09-12T00:11:30;22.27;;;11.02;;
69030;SDS011;56083;48.774;8.942;2023-09-12T00:13:56;19.65;;;10.57;;
69030;SDS011;56083;48.774;8.942;2023-09-12T00:16:24;25.83;;;10.88;;
69030;SDS011;56083;48.774;8.942;2023-09-12T00:18:50;19.10;;;10.00;;
69030;SDS011;56083;48.774;8.942;2023-09-12T00:21:15;21.65;;;10.65;;
69030;SDS011;56083;48.774;8.942;2023-09-12T00:23:41;19.45;;;10.50;;
69030;SDS011;56083;48.774;8.942;2023-09-12T00:26:07;21.08;;;10.73;;
69030;SDS011;56083;48.774;8.942;2023-09-12T00:28:33;19.23;;;10.10;;
69030;SDS011;56083;48.774;8.942;2023-09-12T00:30:59;17.98;;;10.15;;
69030;SDS011;56083;48.774;8.942;2023-09-12T00:33:25;21.30;;;9.85;;
69030;SDS011;56083;48.774;8.942;2023-09-12T00:35:50;22.77;;;9.90;;
69030;SDS011;56083;48.774;8.942;2023-09-12T00:38:16;17.02;;;10.00;;
69030;SDS011;56083;48.774;8.942;2023-09-12T00:40:42;17.40;;;9.88;;
69030;SDS011;56083;48.774;8.942;2023-09-12T00:43:08;17.45;;;10.10;;
69030;SDS011;56083;48.774;8.942;2023-09-12T00:45:35;18.83;;;11.18;;
69030;SDS011;56083;48.774;8.942;2023-09-12T00:48:01;20.15;;;10.52;;
69030;SDS011;56083;48.774;8.942;2023-09-12T00:50:30;22.00;;;10.43;;
69030;SDS011;56083;48.774;8.942;2023-09-12T00:52:56;22.60;;;11.13;;
69030;SDS011;56083;48.774;8.942;2023-09-12T00:55:22;26.42;;;11.45;;
69030;SDS011;56083;48.774;8.942;2023-09-12T00:57:48;20.30;;;11.05;;
69030;SDS011;56083;48.774;8.942;2023-09-12T01:00:15;23.08;;;10.80;;
69030;SDS011;56083;48.774;8.942;2023-09-12T01:02:41;24.88;;;11.25;;
69030;SDS011;56083;48.774;8.942;2023-09-12T01:05:08;21.98;;;10.88;;
69030;SDS011;56083;48.774;8.942;2023-09-12T01:07:35;22.75;;;10.77;;
69030;SDS011;56083;48.774;8.942;2023-09-12T01:10:02;16.52;;;10.38;;
69030;SDS011;56083;48.774;8.942;2023-09-12T01:12:29;19.55;;;11.23;;
69030;SDS011;56083;48.774;8.942;2023-09-12T01:14:55;23.13;;;11.32;;
69030;SDS011;56083;48.774;8.942;2023-09-12T01:17:21;19.73;;;10.88;;
69030;SDS011;56083;48.774;8.942;2023-09-12T01:19:47;21.80;;;10.68;;
69030;SDS011;56083;48.774;8.942;2023-09-12T01:27:42;25.98;;;11.07;;
69030;SDS011;56083;48.774;8.942;2023-09-12T01:30:12;23.98;;;11.35;;
69030;SDS011;56083;48.774;8.942;2023-09-12T01:32:42;21.45;;;10.82;;
69030;SDS011;56083;48.774;8.942;2023-09-12T01:35:08;25.90;;;11.90;;
69030;SDS011;56083;48.774;8.942;2023-09-12T01:37:34;19.60;;;11.48;;
69030;SDS011;56083;48.774;8.942;2023-09-12T01:40:00;23.15;;;11.63;;
69030;SDS011;56083;48.774;8.942;2023-09-12T01:42:30;21.02;;;11.65;;
69030;SDS011;56083;48.774;8.942;2023-09-12T01:45:01;18.23;;;11.50;;
69030;SDS011;56083;48.774;8.942;2023-09-12T01:47:27;25.63;;;12.18;;
69030;SDS011;56083;48.774;8.942;2023-09-12T01:49:55;24.38;;;11.98;;
69030;SDS011;56083;48.774;8.942;2023-09-12T01:52:24;25.95;;;12.20;;
69030;SDS011;56083;48.774;8.942;2023-09-12T01:54:51;26.88;;;12.20;;
69030;SDS011;56083;48.774;8.942;2023-09-12T01:57:17;24.10;;;11.80;;
69030;SDS011;56083;48.774;8.942;2023-09-12T01:59:47;22.33;;;11.43;;
69030;SDS011;56083;48.774;8.942;2023-09-12T02:02:14;22.10;;;11.68;;
69030;SDS011;56083;48.774;8.942;2023-09-12T02:04:41;19.00;;;11.30;;
69030;SDS011;56083;48.774;8.942;2023-09-12T02:07:06;19.73;;;11.20;;
69030;SDS011;56083;48.774;8.942;2023-09-12T02:09:32;22.95;;;12.43;;
69030;SDS011;56083;48.774;8.942;2023-09-12T02:11:58;27.75;;;12.27;;
69030;SDS011;56083;48.774;8.942;2023-09-12T02:14:23;28.42;;;12.95;;
69030;SDS011;56083;48.774;8.942;2023-09-12T02:16:49;17.88;;;11.82;;
69030;SDS011;56083;48.774;8.942;2023-09-12T02:19:15;26.00;;;12.45;;
69030;SDS011;56083;48.774;8.942;2023-09-12T02:21:40;24.15;;;12.80;;
69030;SDS011;56083;48.774;8.942;2023-09-12T02:24:07;25.80;;;12.82;;
69030;SDS011;56083;48.774;8.942;2023-09-12T02:26:33;18.35;;;11.43;;
69030;SDS011;56083;48.774;8.942;2023-09-12T02:29:01;26.35;;;12.98;;
69030;SDS011;56083;48.774;8.942;2023-09-12T02:31:28;26.10;;;13.10;;
69030;SDS011;56083;48.774;8.942;2023-09-12T02:33:53;19.75;;;11.98;;
69030;SDS011;56083;48.774;8.942;2023-09-12T02:36:19;24.60;;;12.80;;
69030;SDS011;56083;48.774;8.942;2023-09-12T02:38:45;28.63;;;12.57;;
69030;SDS011;56083;48.774;8.942;2023-09-12T02:41:11;18.55;;;12.48;;
69030;SDS011;56083;48.774;8.942;2023-09-12T02:43:36;25.50;;;12.55;;
69030;SDS011;56083;48.774;8.942;2023-09-12T02:46:02;17.75;;;11.70;;
69030;SDS011;56083;48.774;8.942;2023-09-12T02:48:27;22.35;;;12.85;;
69030;SDS011;56083;48.774;8.942;2023-09-12T02:50:53;24.35;;;13.07;;
69030;SDS011;56083;48.774;8.942;2023-09-12T02:53:19;27.23;;;12.93;;
69030;SDS011;56083;48.774;8.942;2023-09-12T02:55:44;25.23;;;13.07;;
69030;SDS011;56083;48.774;8.942;2023-09-12T02:58:10;27.10;;;13.02;;
69030;SDS011;56083;48.774;8.942;2023-09-12T03:00:39;23.90;;;12.57;;
69030;SDS011;56083;48.774;8.942;2023-09-12T03:03:07;24.63;;;12.77;;
69030;SDS011;56083;48.774;8.942;2023-09-12T03:05:34;22.17;;;12.75;;
69030;SDS011;56083;48.774;8.942;2023-09-12T03:08:00;28.90;;;13.57;;
69030;SDS011;56083;48.774;8.942;2023-09-12T03:10:28;23.55;;;13.75;;
69030;SDS011;56083;48.774;8.942;2023-09-12T03:12:54;28.52;;;13.18;;
69030;SDS011;56083;48.774;8.942;2023-09-12T03:15:20;25.75;;;13.88;;
69030;SDS011;56083;48.774;8.942;2023-09-12T03:17:45;29.65;;;13.90;;
69030;SDS011;56083;48.774;8.942;2023-09-12T03:20:11;26.73;;;13.88;;
69030;SDS011;56083;48.774;8.942;2023-09-12T03:22:37;25.85;;;13.18;;
69030;SDS011;56083;48.774;8.942;2023-09-12T03:25:05;29.60;;;13.63;;
69030;SDS011;56083;48.774;8.942;2023-09-12T03:27:31;31.67;;;13.63;;
69030;SDS011;56083;48.774;8.942;2023-09-12T03:30:00;24.63;;;13.60;;
69030;SDS011;56083;48.774;8.942;2023-09-12T03:32:25;29.00;;;13.55;;
69030;SDS011;56083;48.774;8.942;2023-09-12T03:34:51;30.42;;;15.18;;
69030;SDS011;56083;48.774;8.942;2023-09-12T03:37:16;30.95;;;14.18;;
69030;SDS011;56083;48.774;8.942;2023-09-12T03:39:42;24.00;;;13.85;;
69030;SDS011;56083;48.774;8.942;2023-09-12T03:42:07;24.98;;;13.48;;
69030;SDS011;56083;48.774;8.942;2023-09-12T03:44:33;24.27;;;13.35;;
69030;SDS011;56083;48.774;8.942;2023-09-12T03:46:59;25.80;;;13.73;;
69030;SDS011;56083;48.774;8.942;2023-09-12T03:49:24;20.77;;;13.15;;
69030;SDS011;56083;48.774;8.942;2023-09-12T03:51:50;25.80;;;13.63;;
69030;SDS011;56083;48.774;8.942;2023-09-12T03:54:16;26.25;;;13.68;;
69030;SDS011;56083;48.774;8.942;2023-09-12T03:56:41;19.15;;;13.15;;
69030;SDS011;56083;48.774;8.942;2023-09-12T03:59:07;23.15;;;13.40;;
69030;SDS011;56083;48.774;8.942;2023-09-12T04:01:32;28.25;;;12.70;;
69030;SDS011;56083;48.774;8.942;2023-09-12T04:03:58;24.83;;;13.45;;
69030;SDS011;56083;48.774;8.942;2023-09-12T04:06:24;23.52;;;12.80;;
69030;SDS011;56083;48.774;8.942;2023-09-12T04:08:49;24.38;;;13.05;;
69030;SDS011;56083;48.774;8.942;2023-09-12T04:11:15;26.92;;;14.25;;
69030;SDS011;56083;48.774;8.942;2023-09-12T04:13:42;29.33;;;12.88;;
69030;SDS011;56083;48.774;8.942;2023-09-12T04:16:08;24.83;;;13.55;;
69030;SDS011;56083;48.774;8.942;2023-09-12T04:18:34;23.85;;;13.68;;
69030;SDS011;56083;48.774;8.942;2023-09-12T04:21:00;22.70;;;13.32;;
69030;SDS011;56083;48.774;8.942;2023-09-12T04:23:25;28.40;;;13.57;;
69030;SDS011;56083;48.774;8.942;2023-09-12T04:25:51;20.27;;;13.25;;
69030;SDS011;56083;48.774;8.942;2023-09-12T04:28:16;25.52;;;13.70;;
69030;SDS011;56083;48.774;8.942;2023-09-12T04:30:42;25.15;;;13.68;;
69030;SDS011;56083;48.774;8.942;2023-09-12T04:33:08;26.83;;;13.18;;
69030;SDS011;56083;48.774;8.942;2023-09-12T04:35:34;25.33;;;13.48;;
69030;SDS011;56083;48.774;8.942;2023-09-12T04:38:00;23.25;;;12.68;;
69030;SDS011;56083;48.774;8.942;2023-09-12T04:40:25;30.83;;;13.85;;
69030;SDS011;56083;48.774;8.942;2023-09-12T04:42:51;28.98;;;13.63;;
69030;SDS011;56083;48.774;8.942;2023-09-12T04:45:16;31.27;;;12.60;;
69030;SDS011;56083;48.774;8.942;2023-09-12T04:47:42;26.77;;;12.48;;
69030;SDS011;56083;48.774;8.942;2023-09-12T04:50:09;19.17;;;12.43;;
69030;SDS011;56083;48.774;8.942;2023-09-12T04:52:36;26.20;;;12.63;;
69030;SDS011;56083;48.774;8.942;2023-09-12T04:55:02;30.13;;;12.20;;
69030;SDS011;56083;48.774;8.942;2023-09-12T04:57:28;20.33;;;12.20;;
69030;SDS011;56083;48.774;8.942;2023-09-12T04:59:55;26.80;;;12.93;;
69030;SDS011;56083;48.774;8.942;2023-09-12T05:02:21;28.05;;;12.60;;
69030;SDS011;56083;48.774;8.942;2023-09-12T05:04:47;27.52;;;12.65;;
69030;SDS011;56083;48.774;8.942;2023-09-12T05:07:13;26.83;;;12.63;;
69030;SDS011;56083;48.774;8.942;2023-09-12T05:09:38;25.55;;;11.90;;
69030;SDS011;56083;48.774;8.942;2023-09-12T05:12:04;29.35;;;12.02;;
69030;SDS011;56083;48.774;8.942;2023-09-12T05:14:30;28.60;;;12.05;;
69030;SDS011;56083;48.774;8.942;2023-09-12T05:16:55;29.17;;;12.35;;
69030;SDS011;56083;48.774;8.942;2023-09-12T05:19:21;26.00;;;12.25;;
69030;SDS011;56083;48.774;8.942;2023-09-12T05:21:48;23.83;;;11.30;;
69030;SDS011;56083;48.774;8.942;2023-09-12T05:24:13;28.05;;;12.73;;
69030;SDS011;56083;48.774;8.942;2023-09-12T05:26:39;26.90;;;11.15;;
69030;SDS011;56083;48.774;8.942;2023-09-12T05:29:04;25.27;;;11.40;;
69030;SDS011;56083;48.774;8.942;2023-09-12T05:31:30;30.15;;;12.00;;
69030;SDS011;56083;48.774;8.942;2023-09-12T05:33:56;36.22;;;11.75;;
69030;SDS011;56083;48.774;8.942;2023-09-12T05:36:22;23.73;;;11.75;;
69030;SDS011;56083;48.774;8.942;2023-09-12T05:38:48;29.98;;;11.35;;
69030;SDS011;56083;48.774;8.942;2023-09-12T05:41:13;34.58;;;11.75;;
69030;SDS011;56083;48.774;8.942;2023-09-12T05:43:39;35.88;;;11.38;;
69030;SDS011;56083;48.774;8.942;2023-09-12T05:46:05;27.25;;;10.68;;
69030;SDS011;56083;48.774;8.942;2023-09-12T05:48:31;34.33;;;11.57;;
69030;SDS011;56083;48.774;8.942;2023-09-12T05:50:56;37.00;;;11.48;;
69030;SDS011;56083;48.774;8.942;2023-09-12T05:53:22;29.25;;;11.43;;
69030;SDS011;56083;48.774;8.942;2023-09-12T05:55:48;30.95;;;11.23;;
69030;SDS011;56083;48.774;8.942;2023-09-12T05:58:14;25.10;;;9.70;;
69030;SDS011;56083;48.774;8.942;2023-09-12T06:00:40;26.95;;;10.68;;
69030;SDS011;56083;48.774;8.942;2023-09-12T06:03:07;34.92;;;10.60;;
69030;SDS011;56083;48.774;8.942;2023-09-12T06:05:33;33.42;;;10.27;;
69030;SDS011;56083;48.774;8.942;2023-09-12T06:07:58;23.15;;;10.57;;
69030;SDS011;56083;48.774;8.942;2023-09-12T06:10:28;23.77;;;9.82;;
69030;SDS011;56083;48.774;8.942;2023-09-12T06:12:54;32.10;;;11.13;;
69030;SDS011;56083;48.774;8.942;2023-09-12T06:15:25;26.65;;;9.63;;
69030;SDS011;56083;48.774;8.942;2023-09-12T06:17:52;28.20;;;10.23;;
69030;SDS011;56083;48.774;8.942;2023-09-12T06:20:20;33.80;;;10.57;;
69030;SDS011;56083;48.774;8.942;2023-09-12T06:22:49;32.88;;;10.10;;
69030;SDS011;56083;48.774;8.942;2023-09-12T06:25:17;24.08;;;9.52;;
69030;SDS011;56083;48.774;8.942;2023-09-12T06:27:55;24.77;;;9.95;;
69030;SDS011;56083;48.774;8.942;2023-09-12T06:30:33;28.83;;;9.70;;
69030;SDS011;56083;48.774;8.942;2023-09-12T06:33:03;19.48;;;9.00;;
69030;SDS011;56083;48.774;8.942;2023-09-12T06:35:33;20.25;;;9.23;;
69030;SDS011;56083;48.774;8.942;2023-09-12T06:37:59;26.35;;;10.35;;
69030;SDS011;56083;48.774;8.942;2023-09-12T06:40:32;18.25;;;9.25;;
69030;SDS011;56083;48.774;8.942;2023-09-12T06:43:01;34.72;;;10.43;;
69030;SDS011;56083;48.774;8.942;2023-09-12T06:45:37;19.52;;;9.80;;
69030;SDS011;56083;48.774;8.942;2023-09-12T06:48:04;28.98;;;9.65;;
69030;SDS011;56083;48.774;8.942;2023-09-12T06:50:34;21.33;;;9.48;;
69030;SDS011;56083;48.774;8.942;2023-09-12T06:53:08;28.35;;;9.27;;
69030;SDS011;56083;48.774;8.942;2023-09-12T06:55:38;25.67;;;10.25;;
69030;SDS011;56083;48.774;8.942;2023-09-12T06:58:03;26.13;;;9.38;;
69030;SDS011;56083;48.774;8.942;2023-09-12T07:00:29;24.02;;;9.38;;
69030;SDS011;56083;48.774;8.942;2023-09-12T07:02:56;26.23;;;9.65;;
69030;SDS011;56083;48.774;8.942;2023-09-12T07:05:21;21.48;;;8.13;;
69030;SDS011;56083;48.774;8.942;2023-09-12T07:07:47;21.23;;;8.43;;
69030;SDS011;56083;48.774;8.942;2023-09-12T07:10:13;21.60;;;7.97;;
69030;SDS011;56083;48.774;8.942;2023-09-12T07:12:38;17.25;;;8.45;;
69030;SDS011;56083;48.774;8.942;2023-09-12T07:15:04;21.75;;;8.43;;
69030;SDS011;56083;48.774;8.942;2023-09-12T07:17:30;16.90;;;7.80;;
69030;SDS011;56083;48.774;8.942;2023-09-12T07:19:56;21.13;;;7.45;;
69030;SDS011;56083;48.774;8.942;2023-09-12T07:22:21;21.55;;;7.63;;
69030;SDS011;56083;48.774;8.942;2023-09-12T07:24:47;22.70;;;7.07;;
69030;SDS011;56083;48.774;8.942;2023-09-12T07:27:13;18.63;;;7.00;;
69030;SDS011;56083;48.774;8.942;2023-09-12T07:29:38;20.33;;;7.40;;
69030;SDS011;56083;48.774;8.942;2023-09-12T07:32:04;19.70;;;6.78;;
69030;SDS011;56083;48.774;8.942;2023-09-12T07:34:30;14.95;;;6.40;;
69030;SDS011;56083;48.774;8.942;2023-09-12T07:36:55;16.20;;;7.10;;
69030;SDS011;56083;48.774;8.942;2023-09-12T07:39:21;17.38;;;6.43;;
69030;SDS011;56083;48.774;8.942;2023-09-12T07:41:46;17.88;;;6.80;;
69030;SDS011;56083;48.774;8.942;2023-09-12T07:44:12;20.55;;;7.10;;
69030;SDS011;56083;48.774;8.942;2023-09-12T07:46:40;30.10;;;7.40;;
69030;SDS011;56083;48.774;8.942;2023-09-12T07:49:06;18.92;;;6.30;;
69030;SDS011;56083;48.774;8.942;2023-09-12T07:51:34;18.45;;;6.85;;
69030;SDS011;56083;48.774;8.942;2023-09-12T07:54:03;23.95;;;7.30;;
69030;SDS011;56083;48.774;8.942;2023-09-12T07:56:32;18.73;;;6.53;;
69030;SDS011;56083;48.774;8.942;2023-09-12T07:58:58;23.17;;;7.60;;
69030;SDS011;56083;48.774;8.942;2023-09-12T08:01:23;20.48;;;7.97;;
69030;SDS011;56083;48.774;8.942;2023-09-12T08:03:55;17.20;;;7.50;;
69030;SDS011;56083;48.774;8.942;2023-09-12T08:06:22;17.33;;;7.25;;
69030;SDS011;56083;48.774;8.942;2023-09-12T08:08:57;19.15;;;7.45;;
69030;SDS011;56083;48.774;8.942;2023-09-12T08:11:25;18.02;;;8.05;;
69030;SDS011;56083;48.774;8.942;2023-09-12T08:13:52;16.35;;;7.18;;
69030;SDS011;56083;48.774;8.942;2023-09-12T08:16:22;11.73;;;7.13;;
69030;SDS011;56083;48.774;8.942;2023-09-12T08:18:52;14.65;;;7.10;;
69030;SDS011;56083;48.774;8.942;2023-09-12T08:21:21;23.65;;;7.15;;
69030;SDS011;56083;48.774;8.942;2023-09-12T08:23:47;17.55;;;7.50;;
69030;SDS011;56083;48.774;8.942;2023-09-12T08:26:13;16.27;;;6.38;;
69030;SDS011;56083;48.774;8.942;2023-09-12T08:28:42;16.48;;;7.13;;
69030;SDS011;56083;48.774;8.942;2023-09-12T08:31:07;16.48;;;6.90;;
69030;SDS011;56083;48.774;8.942;2023-09-12T08:33:44;12.50;;;6.50;;
69030;SDS011;56083;48.774;8.942;2023-09-12T08:36:25;19.48;;;7.00;;
69030;SDS011;56083;48.774;8.942;2023-09-12T08:42:27;12.25;;;6.40;;
69030;SDS011;56083;48.774;8.942;2023-09-12T08:44:54;13.40;;;6.18;;
69030;SDS011;56083;48.774;8.942;2023-09-12T08:47:19;18.85;;;6.32;;
69030;SDS011;56083;48.774;8.942;2023-09-12T08:49:48;16.00;;;6.50;;
69030;SDS011;56083;48.774;8.942;2023-09-12T08:52:14;10.75;;;5.50;;
69030;SDS011;56083;48.774;8.942;2023-09-12T08:54:39;9.20;;;6.40;;
69030;SDS011;56083;48.774;8.942;2023-09-12T08:57:05;18.40;;;6.55;;
69030;SDS011;56083;48.774;8.942;2023-09-12T08:59:33;17.10;;;6.40;;
69030;SDS011;56083;48.774;8.942;2023-09-12T09:01:59;10.63;;;5.90;;
69030;SDS011;56083;48.774;8.942;2023-09-12T09:04:28;15.70;;;6.50;;
69030;SDS011;56083;48.774;8.942;2023-09-12T09:06:56;16.70;;;6.00;;
69030;SDS011;56083;48.774;8.942;2023-09-12T09:09:22;14.00;;;6.47;;
69030;SDS011;56083;48.774;8.942;2023-09-12T09:11:49;13.18;;;5.70;;
69030;SDS011;56083;48.774;8.942;2023-09-12T09:14:15;11.23;;;5.55;;
69030;SDS011;56083;48.774;8.942;2023-09-12T09:16:41;11.55;;;5.38;;
69030;SDS011;56083;48.774;8.942;2023-09-12T09:19:13;14.98;;;5.38;;
69030;SDS011;56083;48.774;8.942;2023-09-12T09:21:40;14.85;;;5.18;;
69030;SDS011;56083;48.774;8.942;2023-09-12T09:26:46;9.57;;;5.38;;
69030;SDS011;56083;48.774;8.942;2023-09-12T09:29:14;11.50;;;5.55;;
69030;SDS011;56083;48.774;8.942;2023-09-12T09:31:41;12.93;;;5.68;;
69030;SDS011;56083;48.774;8.942;2023-09-12T09:36:47;12.85;;;7.05;;
69030;SDS011;56083;48.774;8.942;2023-09-12T09:39:14;16.85;;;5.78;;
69030;SDS011;56083;48.774;8.942;2023-09-12T09:42:17;12.48;;;5.63;;
69030;SDS011;56083;48.774;8.942;2023-09-12T09:44:42;12.55;;;6.00;;
69030;SDS011;56083;48.774;8.942;2023-09-12T09:47:08;13.38;;;6.20;;
69030;SDS011;56083;48.774;8.942;2023-09-12T09:49:34;16.55;;;5.78;;
69030;SDS011;56083;48.774;8.942;2023-09-12T09:51:59;13.18;;;5.43;;
69030;SDS011;56083;48.774;8.942;2023-09-12T09:54:29;11.55;;;5.55;;
69030;SDS011;56083;48.774;8.942;2023-09-12T09:56:56;13.15;;;5.32;;
69030;SDS011;56083;48.774;8.942;2023-09-12T09:59:29;15.52;;;5.22;;
69030;SDS011;56083;48.774;8.942;2023-09-12T10:01:59;10.80;;;5.30;;
69030;SDS011;56083;48.774;8.942;2023-09-12T10:04:29;11.48;;;4.60;;
69030;SDS011;56083;48.774;8.942;2023-09-12T10:07:01;18.00;;;5.15;;
69030;SDS011;56083;48.774;8.942;2023-09-12T10:09:50;12.93;;;5.40;;
69030;SDS011;56083;48.774;8.942;2023-09-12T10:12:24;10.60;;;4.85;;
69030;SDS011;56083;48.774;8.942;2023-09-12T10:14:56;13.02;;;4.97;;
69030;SDS011;56083;48.774;8.942;2023-09-12T10:17:29;13.65;;;5.47;;
69030;SDS011;56083;48.774;8.942;2023-09-12T10:20:42;17.50;;;5.18;;
69030;SDS011;56083;48.774;8.942;2023-09-12T10:23:30;12.00;;;5.40;;
69030;SDS011;56083;48.774;8.942;2023-09-12T10:26:09;19.48;;;5.22;;
69030;SDS011;56083;48.774;8.942;2023-09-12T10:28:49;16.65;;;5.63;;
69030;SDS011;56083;48.774;8.942;2023-09-12T10:31:28;16.92;;;5.10;;
69030;SDS011;56083;48.774;8.942;2023-09-12T10:33:56;13.63;;;4.80;;
69030;SDS011;56083;48.774;8.942;2023-09-12T10:36:24;11.77;;;4.63;;
69030;SDS011;56083;48.774;8.942;2023-09-12T10:38:52;9.60;;;5.00;;
69030;SDS011;56083;48.774;8.942;2023-09-12T10:41:21;8.27;;;5.00;;
69030;SDS011;56083;48.774;8.942;2023-09-12T10:43:49;12.50;;;4.80;;
69030;SDS011;56083;48.774;8.942;2023-09-12T10:46:19;14.60;;;5.38;;
69030;SDS011;56083;48.774;8.942;2023-09-12T10:48:46;9.23;;;4.72;;
69030;SDS011;56083;48.774;8.942;2023-09-12T10:51:12;9.38;;;4.50;;
69030;SDS011;56083;48.774;8.942;2023-09-12T10:53:48;13.65;;;4.93;;
69030;SDS011;56083;48.774;8.942;2023-09-12T10:56:18;9.40;;;4.97;;
69030;SDS011;56083;48.774;8.942;2023-09-12T11:01:35;9.38;;;5.35;;
69030;SDS011;56083;48.774;8.942;2023-09-12T11:10:19;14.05;;;5.32;;
69030;SDS011;56083;48.774;8.942;2023-09-12T11:12:50;13.38;;;4.70;;
69030;SDS011;56083;48.774;8.942;2023-09-12T11:15:17;14.35;;;4.85;;
69030;SDS011;56083;48.774;8.942;2023-09-12T11:17:48;14.80;;;5.35;;
69030;SDS011;56083;48.774;8.942;2023-09-12T11:23:18;11.38;;;5.40;;
69030;SDS011;56083;48.774;8.942;2023-09-12T11:25:44;10.85;;;5.30;;
69030;SDS011;56083;48.774;8.942;2023-09-12T11:28:10;15.50;;;5.45;;
69030;SDS011;56083;48.774;8.942;2023-09-12T11:30:36;13.48;;;5.68;;
69030;SDS011;56083;48.774;8.942;2023-09-12T11:33:19;16.48;;;5.30;;
69030;SDS011;56083;48.774;8.942;2023-09-12T11:35:46;13.18;;;5.20;;
69030;SDS011;56083;48.774;8.942;2023-09-12T11:38:19;12.38;;;5.30;;
69030;SDS011;56083;48.774;8.942;2023-09-12T11:40:57;10.27;;;4.68;;
69030;SDS011;56083;48.774;8.942;2023-09-12T11:43:26;12.70;;;5.05;;
69030;SDS011;56083;48.774;8.942;2023-09-12T11:45:54;12.68;;;5.32;;
69030;SDS011;56083;48.774;8.942;2023-09-12T11:48:20;12.35;;;5.30;;
69030;SDS011;56083;48.774;8.942;2023-09-12T11:50:54;15.18;;;5.60;;
69030;SDS011;56083;48.774;8.942;2023-09-12T11:53:25;14.50;;;5.95;;
69030;SDS011;56083;48.774;8.942;2023-09-12T11:55:56;12.63;;;5.40;;
69030;SDS011;56083;48.774;8.942;2023-09-12T11:58:30;11.65;;;5.43;;
69030;SDS011;56083;48.774;8.942;2023-09-12T12:01:00;19.73;;;5.65;;
69030;SDS011;56083;48.774;8.942;2023-09-12T12:03:28;8.98;;;5.60;;
69030;SDS011;56083;48.774;8.942;2023-09-12T12:05:56;16.83;;;5.50;;
69030;SDS011;56083;48.774;8.942;2023-09-12T12:08:46;17.07;;;5.77;;
69030;SDS011;56083;48.774;8.942;2023-09-12T12:11:12;17.05;;;5.82;;
69030;SDS011;56083;48.774;8.942;2023-09-12T12:13:39;15.50;;;5.45;;
69030;SDS011;56083;48.774;8.942;2023-09-12T12:16:18;15.82;;;5.93;;
69030;SDS011;56083;48.774;8.942;2023-09-12T12:18:44;12.60;;;6.10;;
69030;SDS011;56083;48.774;8.942;2023-09-12T12:21:10;9.65;;;5.55;;
69030;SDS011;56083;48.774;8.942;2023-09-12T12:23:35;14.57;;;5.70;;
69030;SDS011;56083;48.774;8.942;2023-09-12T12:26:07;17.40;;;5.63;;
69030;SDS011;56083;48.774;8.942;2023-09-12T12:28:35;13.25;;;6.10;;
69030;SDS011;56083;48.774;8.942;2023-09-12T12:31:00;19.35;;;5.70;;
69030;SDS011;56083;48.774;8.942;2023-09-12T12:33:26;13.35;;;5.68;;
69030;SDS011;56083;48.774;8.942;2023-09-12T12:36:02;14.23;;;5.93;;
69030;SDS011;56083;48.774;8.942;2023-09-12T12:38:33;19.15;;;5.93;;
69030;SDS011;56083;48.774;8.942;2023-09-12T12:41:00;26.67;;;6.43;;
69030;SDS011;56083;48.774;8.942;2023-09-12T12:43:26;16.95;;;5.47;;
69030;SDS011;56083;48.774;8.942;2023-09-12T12:45:53;15.60;;;5.90;;
69030;SDS011;56083;48.774;8.942;2023-09-12T12:48:33;17.90;;;6.05;;
69030;SDS011;56083;48.774;8.942;2023-09-12T12:51:14;18.42;;;5.40;;
69030;SDS011;56083;48.774;8.942;2023-09-12T12:53:49;12.55;;;5.57;;
69030;SDS011;56083;48.774;8.942;2023-09-12T12:56:19;10.90;;;5.32;;
69030;SDS011;56083;48.774;8.942;2023-09-12T12:58:51;17.33;;;5.63;;
69030;SDS011;56083;48.774;8.942;2023-09-12T13:01:19;15.48;;;5.60;;
69030;SDS011;56083;48.774;8.942;2023-09-12T13:03:45;18.13;;;6.00;;
69030;SDS011;56083;48.774;8.942;2023-09-12T13:06:11;16.50;;;5.70;;
69030;SDS011;56083;48.774;8.942;2023-09-12T13:08:41;15.25;;;5.20;;
69030;SDS011;56083;48.774;8.942;2023-09-12T13:11:07;16.15;;;5.53;;
69030;SDS011;56083;48.774;8.942;2023-09-12T13:13:34;14.60;;;5.72;;
69030;SDS011;56083;48.774;8.942;2023-09-12T13:15:59;18.30;;;5.20;;
69030;SDS011;56083;48.774;8.942;2023-09-12T13:18:29;11.35;;;5.20;;
69030;SDS011;56083;48.774;8.942;2023-09-12T13:21:03;15.95;;;5.07;;
69030;SDS011;56083;48.774;8.942;2023-09-12T13:23:36;15.55;;;5.55;;
69030;SDS011;56083;48.774;8.942;2023-09-12T13:26:10;12.90;;;5.20;;
69030;SDS011;56083;48.774;8.942;2023-09-12T13:28:37;16.52;;;4.88;;
69030;SDS011;56083;48.774;8.942;2023-09-12T13:31:05;12.35;;;5.00;;
69030;SDS011;56083;48.774;8.942;2023-09-12T13:33:35;10.75;;;4.80;;
69030;SDS011;56083;48.774;8.942;2023-09-12T13:38:59;12.15;;;5.00;;
69030;SDS011;56083;48.774;8.942;2023-09-12T13:41:26;15.07;;;5.30;;
69030;SDS011;56083;48.774;8.942;2023-09-12T13:43:54;11.10;;;4.65;;
69030;SDS011;56083;48.774;8.942;2023-09-12T13:46:25;12.88;;;5.18;;
69030;SDS011;56083;48.774;8.942;2023-09-12T13:49:02;11.05;;;4.75;;
69030;SDS011;56083;48.774;8.942;2023-09-12T13:51:42;17.08;;;5.10;;
69030;SDS011;56083;48.774;8.942;2023-09-12T13:54:10;8.40;;;4.82;;
69030;SDS011;56083;48.774;8.942;2023-09-12T13:56:45;17.77;;;5.07;;
69030;SDS011;56083;48.774;8.942;2023-09-12T13:59:17;14.02;;;4.97;;
69030;SDS011;56083;48.774;8.942;2023-09-12T14:01:45;15.60;;;5.07;;
69030;SDS011;56083;48.774;8.942;2023-09-12T14:04:11;8.60;;;4.80;;
69030;SDS011;56083;48.774;8.942;2023-09-12T14:06:38;16.98;;;5.57;;
69030;SDS011;56083;48.774;8.942;2023-09-12T14:09:06;12.55;;;5.15;;
69030;SDS011;56083;48.774;8.942;2023-09-12T14:11:39;11.65;;;5.60;;
69030;SDS011;56083;48.774;8.942;2023-09-12T14:14:15;10.25;;;4.90;;
69030;SDS011;56083;48.774;8.942;2023-09-12T14:16:43;9.57;;;4.70;;
69030;SDS011;56083;48.774;8.942;2023-09-12T14:19:19;16.13;;;4.85;;
69030;SDS011;56083;48.774;8.942;2023-09-12T14:22:11;16.17;;;5.68;;
69030;SDS011;56083;48.774;8.942;2023-09-12T14:24:38;16.33;;;6.43;;
69030;SDS011;56083;48.774;8.942;2023-09-12T14:27:04;10.02;;;5.50;;
69030;SDS011;56083;48.774;8.942;2023-09-12T14:29:33;13.98;;;5.75;;
69030;SDS011;56083;48.774;8.942;2023-09-12T14:31:58;18.27;;;5.63;;
69030;SDS011;56083;48.774;8.942;2023-09-12T14:34:25;13.13;;;5.00;;
69030;SDS011;56083;48.774;8.942;2023-09-12T14:36:53;12.70;;;5.85;;
69030;SDS011;56083;48.774;8.942;2023-09-12T14:39:23;15.45;;;5.30;;
69030;SDS011;56083;48.774;8.942;2023-09-12T14:41:51;19.63;;;5.00;;
69030;SDS011;56083;48.774;8.942;2023-09-12T14:44:19;13.93;;;5.18;;
69030;SDS011;56083;48.774;8.942;2023-09-12T14:46:46;10.43;;;4.88;;
69030;SDS011;56083;48.774;8.942;2023-09-12T14:49:12;12.57;;;5.10;;
69030;SDS011;56083;48.774;8.942;2023-09-12T14:51:39;17.95;;;5.43;;
69030;SDS011;56083;48.774;8.942;2023-09-12T14:54:05;12.00;;;4.97;;
69030;SDS011;56083;48.774;8.942;2023-09-12T14:56:31;11.68;;;5.28;;
69030;SDS011;56083;48.774;8.942;2023-09-12T14:58:58;12.07;;;5.63;;
69030;SDS011;56083;48.774;8.942;2023-09-12T15:01:24;17.27;;;5.07;;
69030;SDS011;56083;48.774;8.942;2023-09-12T15:03:50;15.07;;;5.82;;